Darstellungsparameter: Aktuell verwendete Einstellungen:
Skalierung der Graphiken ... ?
xyx+y,   Skalierungsfaktor:      Skalierung: Modus: x, Faktor: 1
Darstellungszeitraum ... ?
Vom - - bis: - -   Zeitraum: 05.06.2011 - 06.06.2011
Min/Max/Avg-Anzeige ... ?
Zeige MMA aktuell
Zeige MMA Monat
Zeige MMA alles
Zeige --A aktuell
Zeige --A Monat
Zeige --A alles
Keine MMA-Anzeige
MMA:
Keine MMA-Graphiken
MMA-Basis: 05.06.2011 - 06.06.2011
Quicknavigation für Darstellung... ?
Tage:      1T, 2T, 3T, 5T -1T -2T -3T -5T +1T +2T +3T +5T
Wochen: 1W, 2W, 3W -1W -2W -3W +1W +2W +3W
Monate: 1M, 3M, 6M -1M -3M -6M +1M +3M +6M
Jahre:    1J, 3J, 5J, 10J -1J -3J -5J -10J +1J +3J +5J +10J
Nutze für die Darstellung ... ?
Originaldaten oder Mittelwerte auf ...
Stundenbasis Tagesbasis Wochenbasis
Monatsbasis Jahresbasis      Datenbasis: Original-Daten
Darstellen als:
Statistik (Auto) Statistik J:M      Darstellung:
Zur Graphik,    zurück zur Übersicht aller Sensoren.
 
Tabellarische Datenbersicht: ?
 
Sensor: Nr:Datum:Temp:Abs-Feuchte:Windchill:Wind:
Aussen-T/F 1 05-06-2011 00:05:03 17.9 C 13.44 g/m*3 17.9 C 0 km/h
2 05-06-2011 00:17:03 17.9 C 13.44 g/m*3 17.9 C 0 km/h
3 05-06-2011 00:29:03 17.7 C 13.28 g/m*3 17.7 C 0 km/h
4 05-06-2011 00:41:03 17.8 C 13.36 g/m*3 17.8 C 0 km/h
5 05-06-2011 00:53:03 17.7 C 13.28 g/m*3 17.7 C 0 km/h
6 05-06-2011 01:05:03 17.6 C 13.2 g/m*3 17.6 C 0 km/h
7 05-06-2011 01:17:03 17.4 C 13.04 g/m*3 17.4 C 0 km/h
8 05-06-2011 01:29:03 17.5 C 13.12 g/m*3 17.5 C 0 km/h
9 05-06-2011 01:41:03 17.2 C 12.89 g/m*3 17.2 C 0 km/h
10 05-06-2011 01:53:03 17 C 12.73 g/m*3 17 C 0 km/h
11 05-06-2011 02:05:03 16.9 C 12.8 g/m*3 16.9 C 0 km/h
12 05-06-2011 02:17:03 16.7 C 12.65 g/m*3 16.7 C 0 km/h
13 05-06-2011 02:29:03 16.5 C 12.5 g/m*3 16.5 C 0 km/h
14 05-06-2011 02:41:03 16.3 C 12.35 g/m*3 16.3 C 0 km/h
15 05-06-2011 02:53:04 16.4 C 12.42 g/m*3 16.4 C 0 km/h
16 05-06-2011 03:05:04 16.1 C 12.2 g/m*3 16.1 C 0 km/h
17 05-06-2011 03:17:04 16 C 12.13 g/m*3 16 C 0 km/h
18 05-06-2011 03:29:04 15.7 C 11.91 g/m*3 15.7 C 0 km/h
19 05-06-2011 03:41:04 15.7 C 11.91 g/m*3 15.7 C 0 km/h
20 05-06-2011 03:53:04 15.4 C 11.69 g/m*3 15.4 C 0 km/h
21 05-06-2011 04:05:04 15.5 C 11.76 g/m*3 15.5 C 0 km/h
22 05-06-2011 04:17:04 15.5 C 11.76 g/m*3 15.5 C 0 km/h
23 05-06-2011 04:29:04 15.7 C 11.91 g/m*3 15.7 C 0 km/h
24 05-06-2011 04:41:04 15.1 C 11.48 g/m*3 15.1 C 0 km/h
25 05-06-2011 04:53:04 15.1 C 11.48 g/m*3 15.1 C 0 km/h
Sensor: Nr:Datum:Temp:Abs-Feuchte:Windchill:Wind:
Aussen-T/F 26 05-06-2011 05:05:04 15.2 C 11.55 g/m*3 15.2 C 0 km/h
27 05-06-2011 05:17:04 15.3 C 11.75 g/m*3 15.3 C 0 km/h
28 05-06-2011 05:29:04 15 C 11.54 g/m*3 15 C 0 km/h
29 05-06-2011 05:41:04 15.2 C 11.68 g/m*3 15.2 C 0 km/h
30 05-06-2011 05:53:04 15.6 C 11.97 g/m*3 15.6 C 0 km/h
31 05-06-2011 06:05:04 15.8 C 12.11 g/m*3 15.8 C 0 km/h
32 05-06-2011 06:17:04 16.1 C 12.2 g/m*3 16.1 C 0 km/h
33 05-06-2011 06:29:04 16.2 C 12.41 g/m*3 16.2 C 0 km/h
34 05-06-2011 06:41:04 16.4 C 12.56 g/m*3 16.4 C 0 km/h
35 05-06-2011 06:53:04 16.3 C 12.49 g/m*3 16.3 C 0 km/h
36 05-06-2011 07:05:05 16.3 C 12.49 g/m*3 16.3 C 0 km/h
37 05-06-2011 07:17:05 16.4 C 12.56 g/m*3 16.4 C 0 km/h
38 05-06-2011 07:29:05 16.5 C 12.5 g/m*3 16.5 C 0 km/h
39 05-06-2011 07:41:05 16.7 C 12.79 g/m*3 16.7 C 0 km/h
40 05-06-2011 07:53:05 17.4 C 13.19 g/m*3 17.4 C 0 km/h
41 05-06-2011 08:05:02 17.9 C 13.59 g/m*3 17.9 C 0 km/h
42 05-06-2011 08:17:02 18 C 13.52 g/m*3 18 C 0 km/h
43 05-06-2011 08:29:02 18.4 C 13.68 g/m*3 18.4 C 0 km/h
44 05-06-2011 08:41:02 18.5 C 13.61 g/m*3 18.5 C 0 km/h
45 05-06-2011 08:53:02 18.7 C 13.45 g/m*3 18.7 C 0 km/h
46 05-06-2011 09:05:01 18.6 C 12.73 g/m*3 18.6 C 0 km/h
47 05-06-2011 09:17:02 19.5 C 12.59 g/m*3 19.5 C 0 km/h
48 05-06-2011 09:29:02 19.9 C 12.54 g/m*3 19.9 C 0 km/h
49 05-06-2011 09:41:02 19.5 C 12.25 g/m*3 19.5 C 0 km/h
50 05-06-2011 09:53:01 19.5 C 12.42 g/m*3 19.5 C 0 km/h
Sensor: Nr:Datum:Temp:Abs-Feuchte:Windchill:Wind:
Aussen-T/F 51 05-06-2011 10:05:02 19.9 C 13.4 g/m*3 19.9 C 0 km/h
52 05-06-2011 10:17:02 20.2 C 13.46 g/m*3 20.2 C 0 km/h
53 05-06-2011 10:29:02 20.6 C 13.42 g/m*3 20.6 C 0 km/h
54 05-06-2011 10:41:01 21.8 C 14.01 g/m*3 21.8 C 0 km/h
55 05-06-2011 10:53:02 21.7 C 12.97 g/m*3 21.7 C 0 km/h
56 05-06-2011 11:05:01 21.7 C 12.97 g/m*3 21.7 C 0 km/h
57 05-06-2011 11:17:01 21.7 C 12.59 g/m*3 21.7 C 0 km/h
58 05-06-2011 11:29:02 22.2 C 12.96 g/m*3 22.2 C 0 km/h
59 05-06-2011 11:41:01 22.4 C 13.31 g/m*3 22.4 C 0 km/h
60 05-06-2011 11:53:02 23.2 C 13.1 g/m*3 23.2 C 0 km/h
61 05-06-2011 12:05:02 23.7 C 12.62 g/m*3 23.7 C 0 km/h
62 05-06-2011 12:17:02 24.1 C 12.25 g/m*3 24.1 C 0 km/h
63 05-06-2011 12:29:02 23.7 C 13.9 g/m*3 23.7 C 0 km/h
64 05-06-2011 12:41:02 24.4 C 14.02 g/m*3 24.4 C 0 km/h
65 05-06-2011 12:53:01 24.8 C 13.2 g/m*3 24.8 C 0 km/h
66 05-06-2011 13:05:02 25.3 C 14.05 g/m*3 25.3 C 0 km/h
67 05-06-2011 13:17:01 24.9 C 13.73 g/m*3 24.9 C 0 km/h
68 05-06-2011 13:29:01 24.8 C 13.88 g/m*3 24.8 C 0 km/h
69 05-06-2011 13:41:02 25 C 13.81 g/m*3 25 C 0 km/h
70 05-06-2011 13:53:02 25.6 C 15 g/m*3 25.6 C 0 km/h
71 05-06-2011 14:05:02 25.3 C 14.05 g/m*3 25.3 C 0 km/h
72 05-06-2011 14:17:01 24.7 C 15.16 g/m*3 24.7 C 0 km/h
73 05-06-2011 14:29:01 24.4 C 15.58 g/m*3 24.4 C 0 km/h
74 05-06-2011 14:41:02 27.5 C 14.55 g/m*3 27.5 C 0 km/h
75 05-06-2011 14:53:02 28.1 C 11.76 g/m*3 28.1 C 0 km/h
Sensor: Nr:Datum:Temp:Abs-Feuchte:Windchill:Wind:
Aussen-T/F 76 05-06-2011 15:05:02 27.7 C 13.91 g/m*3 27.7 C 0 km/h
77 05-06-2011 15:17:01 25.3 C 12.88 g/m*3 25.3 C 0 km/h
78 05-06-2011 15:29:01 23.7 C 14.33 g/m*3 23.7 C 0 km/h
79 05-06-2011 15:41:16 21.9 C 14.67 g/m*3 21.9 C 0 km/h
80 05-06-2011 15:53:16 21.1 C 14.56 g/m*3 21.1 C 0 km/h
81 05-06-2011 16:05:16 19.5 C 13.43 g/m*3 19.5 C 0 km/h
82 05-06-2011 16:17:16 17.4 C 12 g/m*3 17.4 C 0 km/h
83 05-06-2011 16:29:16 17.3 C 12.23 g/m*3 17.3 C 0 km/h
84 05-06-2011 16:41:16 17.6 C 12.6 g/m*3 17.6 C 0 km/h
85 05-06-2011 16:53:16 17.3 C 12.37 g/m*3 17.3 C 0 km/h
86 05-06-2011 17:05:02 17.4 C 12.6 g/m*3 17.4 C 0 km/h
87 05-06-2011 17:17:02 17.5 C 12.82 g/m*3 17.5 C 0 km/h
88 05-06-2011 17:29:02 17.7 C 12.98 g/m*3 17.7 C 0 km/h
89 05-06-2011 17:41:02 17.2 C 12.59 g/m*3 17.2 C 0 km/h
90 05-06-2011 17:53:02 17.2 C 12.59 g/m*3 17.2 C 0 km/h
91 05-06-2011 18:05:01 17.2 C 12.59 g/m*3 17.2 C 0 km/h
92 05-06-2011 18:17:02 16.9 C 12.51 g/m*3 16.9 C 0 km/h
93 05-06-2011 18:29:02 16.9 C 12.51 g/m*3 16.9 C 0 km/h
94 05-06-2011 18:41:02 16.8 C 12.44 g/m*3 16.8 C 0 km/h
95 05-06-2011 18:53:02 16.8 C 12.58 g/m*3 16.8 C 0 km/h
96 05-06-2011 19:05:03 17 C 12.59 g/m*3 17 C 0 km/h
97 05-06-2011 19:17:02 17.2 C 12.74 g/m*3 17.2 C 0 km/h
98 05-06-2011 19:29:02 17.4 C 13.04 g/m*3 17.4 C 0 km/h
99 05-06-2011 19:41:02 17.7 C 13.28 g/m*3 17.7 C 0 km/h
100 05-06-2011 19:53:01 17.8 C 13.36 g/m*3 17.8 C 0 km/h
Sensor: Nr:Datum:Temp:Abs-Feuchte:Windchill:Wind:
Aussen-T/F 101 05-06-2011 20:05:02 17.8 C 13.2 g/m*3 17.8 C 0 km/h
102 05-06-2011 20:17:01 17.8 C 13.2 g/m*3 17.8 C 0 km/h
103 05-06-2011 20:29:01 17.6 C 13.05 g/m*3 17.6 C 0 km/h
104 05-06-2011 20:41:02 17.3 C 12.82 g/m*3 17.3 C 0 km/h
105 05-06-2011 20:53:01 17.3 C 12.82 g/m*3 17.3 C 0 km/h
106 05-06-2011 21:05:02 17.2 C 12.74 g/m*3 17.2 C 0 km/h
107 05-06-2011 21:17:01 17 C 12.59 g/m*3 17 C 0 km/h
108 05-06-2011 21:29:01 16.8 C 12.58 g/m*3 16.8 C 0 km/h
109 05-06-2011 21:41:02 16.7 C 12.51 g/m*3 16.7 C 0 km/h
110 05-06-2011 21:53:01 16.7 C 12.65 g/m*3 16.7 C 0 km/h
111 05-06-2011 22:05:01 16.7 C 12.65 g/m*3 16.7 C 0 km/h
112 05-06-2011 22:17:02 16.8 C 12.72 g/m*3 16.8 C 0 km/h
113 05-06-2011 22:29:02 16.8 C 12.72 g/m*3 16.8 C 0 km/h
114 05-06-2011 22:41:01 16.4 C 12.42 g/m*3 16.4 C 0 km/h
115 05-06-2011 22:53:03 16.2 C 12.27 g/m*3 16.2 C 0 km/h
116 05-06-2011 23:06:05 16.1 C 12.2 g/m*3 16.1 C 0 km/h
117 05-06-2011 23:18:05 16 C 12.13 g/m*3 16 C 0 km/h
118 05-06-2011 23:30:05 15.9 C 12.05 g/m*3 15.9 C 0 km/h
119 05-06-2011 23:42:05 15.5 C 11.76 g/m*3 15.5 C 0 km/h
120 05-06-2011 23:54:05 15 C 11.41 g/m*3 15 C 0 km/h
121 06-06-2011 00:06:05 15.3 C 11.62 g/m*3 15.3 C 0 km/h
122 06-06-2011 00:18:05 15.3 C 11.75 g/m*3 15.3 C 0 km/h
123 06-06-2011 00:30:06 14.9 C 11.47 g/m*3 14.9 C 0 km/h
124 06-06-2011 00:42:06 15 C 11.41 g/m*3 15 C 0 km/h
125 06-06-2011 00:54:06 15 C 11.54 g/m*3 15 C 0 km/h
Sensor: Nr:Datum:Temp:Abs-Feuchte:Windchill:Wind:
Aussen-T/F 126 06-06-2011 01:06:06 15.1 C 11.61 g/m*3 15.1 C 0 km/h
127 06-06-2011 01:18:06 15.1 C 11.61 g/m*3 15.1 C 0 km/h
128 06-06-2011 01:30:06 14.9 C 11.6 g/m*3 14.9 C 0 km/h
129 06-06-2011 01:42:06 15 C 11.54 g/m*3 15 C 0 km/h
130 06-06-2011 01:54:06 15 C 11.54 g/m*3 15 C 0 km/h
131 06-06-2011 02:06:06 15.1 C 11.61 g/m*3 15.1 C 0 km/h
132 06-06-2011 02:18:06 15.1 C 11.61 g/m*3 15.1 C 0 km/h
133 06-06-2011 02:30:06 15.1 C 11.61 g/m*3 15.1 C 0 km/h
134 06-06-2011 02:42:06 15 C 11.54 g/m*3 15 C 0 km/h
135 06-06-2011 02:54:06 15 C 11.54 g/m*3 15 C 0 km/h
136 06-06-2011 03:06:06 15.1 C 11.61 g/m*3 15.1 C 0 km/h
137 06-06-2011 03:18:06 14.9 C 11.6 g/m*3 14.9 C 0 km/h
138 06-06-2011 03:30:06 15 C 11.54 g/m*3 15 C 0 km/h
139 06-06-2011 03:42:06 14.5 C 11.32 g/m*3 14.5 C 0 km/h
140 06-06-2011 03:54:06 14.4 C 11.25 g/m*3 14.4 C 0 km/h
141 06-06-2011 04:06:06 14.4 C 11.25 g/m*3 14.4 C 0 km/h
142 06-06-2011 04:18:06 13.8 C 10.84 g/m*3 13.8 C 0 km/h
143 06-06-2011 04:30:06 14 C 10.98 g/m*3 14 C 0 km/h
144 06-06-2011 04:42:07 14 C 10.98 g/m*3 14 C 0 km/h
145 06-06-2011 04:54:07 13.7 C 10.78 g/m*3 13.7 C 0 km/h
146 06-06-2011 05:06:07 14 C 10.98 g/m*3 14 C 0 km/h
147 06-06-2011 05:18:07 13.6 C 10.71 g/m*3 13.6 C 0 km/h
148 06-06-2011 05:30:07 13.6 C 10.71 g/m*3 13.6 C 0 km/h
149 06-06-2011 05:42:07 13.5 C 10.64 g/m*3 13.5 C 0 km/h
150 06-06-2011 05:54:07 13.7 C 10.78 g/m*3 13.7 C 0 km/h
Sensor: Nr:Datum:Temp:Abs-Feuchte:Windchill:Wind:
Aussen-T/F 151 06-06-2011 06:06:07 13.7 C 10.78 g/m*3 13.7 C 0 km/h
152 06-06-2011 06:18:07 14 C 10.98 g/m*3 14 C 0 km/h
153 06-06-2011 06:30:07 14.2 C 11.11 g/m*3 14.2 C 0 km/h
154 06-06-2011 06:42:07 14.4 C 11.25 g/m*3 14.4 C 0 km/h
155 06-06-2011 06:54:07 14.8 C 11.53 g/m*3 14.8 C 0 km/h
156 06-06-2011 07:06:07 14.9 C 11.6 g/m*3 14.9 C 0 km/h
157 06-06-2011 07:18:04 15.2 C 11.68 g/m*3 15.2 C 0 km/h
158 06-06-2011 07:30:04 15.4 C 11.82 g/m*3 15.4 C 0 km/h
159 06-06-2011 07:42:04 15.5 C 11.9 g/m*3 15.5 C 0 km/h
160 06-06-2011 07:54:03 15.7 C 12.04 g/m*3 15.7 C 0 km/h
161 06-06-2011 08:06:02 16.1 C 12.34 g/m*3 16.1 C 0 km/h
162 06-06-2011 08:18:02 16.8 C 12.87 g/m*3 16.8 C 0 km/h
163 06-06-2011 08:30:02 17 C 12.88 g/m*3 17 C 0 km/h
164 06-06-2011 08:42:02 18.3 C 13.76 g/m*3 18.3 C 0 km/h
165 06-06-2011 08:54:02 18.1 C 13.44 g/m*3 18.1 C 0 km/h
166 06-06-2011 09:06:01 18.3 C 13.29 g/m*3 18.3 C 0 km/h
167 06-06-2011 09:18:02 18.1 C 12.82 g/m*3 18.1 C 0 km/h
168 06-06-2011 09:30:02 18.1 C 12.98 g/m*3 18.1 C 0 km/h
169 06-06-2011 09:42:02 18.3 C 12.98 g/m*3 18.3 C 0 km/h
170 06-06-2011 09:54:02 18.8 C 13.37 g/m*3 18.8 C 0 km/h
171 06-06-2011 10:06:02 19 C 13.53 g/m*3 19 C 0 km/h
172 06-06-2011 10:18:02 19.6 C 13.34 g/m*3 19.6 C 0 km/h
173 06-06-2011 10:30:02 20.7 C 13.14 g/m*3 20.7 C 0 km/h
174 06-06-2011 10:42:02 21.3 C 11.93 g/m*3 21.3 C 0 km/h
175 06-06-2011 10:54:02 21.4 C 12 g/m*3 21.4 C 0 km/h
Sensor: Nr:Datum:Temp:Abs-Feuchte:Windchill:Wind:
Aussen-T/F 176 06-06-2011 11:06:02 21.9 C 11.77 g/m*3 21.9 C 0 km/h
177 06-06-2011 11:18:02 22.9 C 10.83 g/m*3 22.9 C 0 km/h
178 06-06-2011 11:30:02 21.5 C 10.75 g/m*3 21.5 C 0 km/h
179 06-06-2011 11:42:02 22.3 C 10.86 g/m*3 22.3 C 0 km/h
180 06-06-2011 11:54:02 22.9 C 11.24 g/m*3 22.9 C 0 km/h
181 06-06-2011 12:06:02 23 C 11.1 g/m*3 23 C 0 km/h
182 06-06-2011 12:18:02 22.9 C 10.83 g/m*3 22.9 C 0 km/h
183 06-06-2011 12:30:02 23.5 C 10.79 g/m*3 23.5 C 0 km/h
184 06-06-2011 12:42:02 23.9 C 11.03 g/m*3 23.9 C 0 km/h
185 06-06-2011 12:54:02 24.2 C 10.78 g/m*3 24.2 C 0 km/h
186 06-06-2011 13:06:01 24.6 C 11.25 g/m*3 24.6 C 0 km/h
187 06-06-2011 13:18:02 24.6 C 10.35 g/m*3 24.6 C 0 km/h
188 06-06-2011 13:30:02 29.1 C 10.11 g/m*3 29.1 C 0 km/h
189 06-06-2011 13:42:01 27.8 C 9.95 g/m*3 27.8 C 0 km/h
190 06-06-2011 13:54:02 27 C 9.01 g/m*3 27 C 0 km/h
191 06-06-2011 14:06:01 28.3 C 9.68 g/m*3 28.3 C 0 km/h
192 06-06-2011 14:18:01 27.3 C 9.42 g/m*3 27.3 C 0 km/h
193 06-06-2011 14:30:01 26.7 C 9.37 g/m*3 26.7 C 0 km/h
194 06-06-2011 14:42:02 26.4 C 8.96 g/m*3 26.4 C 0 km/h
195 06-06-2011 14:54:02 26.5 C 10.01 g/m*3 26.5 C 0 km/h
196 06-06-2011 15:06:02 26.2 C 8.86 g/m*3 26.2 C 0 km/h
197 06-06-2011 15:18:01 25.8 C 9.87 g/m*3 25.8 C 0 km/h
198 06-06-2011 15:30:01 25.5 C 11.6 g/m*3 25.5 C 0 km/h
199 06-06-2011 15:42:02 27.2 C 10.15 g/m*3 27.2 C 0 km/h
200 06-06-2011 15:54:02 25.1 C 9.26 g/m*3 25.1 C 0 km/h
Sensor: Nr:Datum:Temp:Abs-Feuchte:Windchill:Wind:
Aussen-T/F 201 06-06-2011 16:06:02 24.8 C 10.24 g/m*3 24.8 C 0 km/h
202 06-06-2011 16:18:01 25.1 C 10.19 g/m*3 25.1 C 0 km/h
203 06-06-2011 16:30:01 26.1 C 10.28 g/m*3 26.1 C 0 km/h
204 06-06-2011 16:42:02 25.8 C 10.11 g/m*3 25.8 C 0 km/h
205 06-06-2011 16:54:02 23 C 8.63 g/m*3 23 C 0 km/h
206 06-06-2011 17:06:02 21.1 C 8.84 g/m*3 21.1 C 0 km/h
207 06-06-2011 17:18:01 18 C 9.83 g/m*3 18 C 0 km/h
208 06-06-2011 17:30:01 16.9 C 10.79 g/m*3 16.9 C 0 km/h
209 06-06-2011 17:42:02 16.4 C 10.89 g/m*3 16.4 C 0 km/h
210 06-06-2011 17:54:01 16.3 C 11.38 g/m*3 16.3 C 0 km/h
211 06-06-2011 18:06:02 16.4 C 11.72 g/m*3 16.4 C 0 km/h
212 06-06-2011 18:18:02 17 C 12.01 g/m*3 17 C 0 km/h
213 06-06-2011 18:30:02 16.8 C 12.01 g/m*3 16.8 C 0 km/h
214 06-06-2011 18:42:01 17.2 C 12.3 g/m*3 17.2 C 0 km/h
215 06-06-2011 18:54:02 17.2 C 12.3 g/m*3 17.2 C 0 km/h
216 06-06-2011 19:06:01 17.2 C 12.3 g/m*3 17.2 C 0 km/h
217 06-06-2011 19:18:02 17.5 C 12.67 g/m*3 17.5 C 0 km/h
218 06-06-2011 19:30:03 17.8 C 12.9 g/m*3 17.8 C 0 km/h
219 06-06-2011 19:42:01 18.1 C 12.82 g/m*3 18.1 C 0 km/h
220 06-06-2011 19:54:02 18.1 C 12.82 g/m*3 18.1 C 0 km/h
221 06-06-2011 20:06:02 18.1 C 12.67 g/m*3 18.1 C 0 km/h
222 06-06-2011 20:18:02 18.1 C 12.67 g/m*3 18.1 C 0 km/h
223 06-06-2011 20:30:02 18.1 C 12.67 g/m*3 18.1 C 0 km/h
224 06-06-2011 20:42:49 17.5 C 12.52 g/m*3 17.5 C 0 km/h
225 06-06-2011 20:54:49 17.2 C 12.45 g/m*3 17.2 C 0 km/h
Sensor: Nr:Datum:Temp:Abs-Feuchte:Windchill:Wind:
Aussen-T/F 226 06-06-2011 21:06:49 16.8 C 12.15 g/m*3 16.8 C 0 km/h
227 06-06-2011 21:18:03 16.5 C 12.08 g/m*3 16.5 C 0 km/h
228 06-06-2011 21:30:03 16.3 C 11.93 g/m*3 16.3 C 0 km/h
229 06-06-2011 21:42:02 16.2 C 12 g/m*3 16.2 C 0 km/h
230 06-06-2011 21:55:02 15.9 C 11.78 g/m*3 15.9 C 0 km/h
231 06-06-2011 22:07:02 15.9 C 11.92 g/m*3 15.9 C 0 km/h
232 06-06-2011 22:19:02 15.6 C 11.7 g/m*3 15.6 C 0 km/h
233 06-06-2011 22:31:02 15.3 C 11.49 g/m*3 15.3 C 0 km/h
234 06-06-2011 22:43:02 15.8 C 11.98 g/m*3 15.8 C 0 km/h
235 06-06-2011 22:55:02 15.6 C 11.84 g/m*3 15.6 C 0 km/h
236 06-06-2011 23:07:03 15.5 C 11.76 g/m*3 15.5 C 0 km/h
237 06-06-2011 23:19:03 15.7 C 11.91 g/m*3 15.7 C 0 km/h
238 06-06-2011 23:31:03 15.6 C 11.84 g/m*3 15.6 C 0 km/h
239 06-06-2011 23:43:03 15.6 C 11.84 g/m*3 15.6 C 0 km/h
240 06-06-2011 23:55:03 15.4 C 11.69 g/m*3 15.4 C 0 km/h

Legende:
   Min
   Max


Maximal/Minimal-Werte vom 05.06.2011 - 06.06.2011

Sensor Min Max Avg
Temp
(Aussen-T/F)
13.5 °C
06-06-2011  05:42:07
29.1 °C
06-06-2011  13:30:02
18.51 °C
Abs-Feuchte
(Aussen-T/F)
8.63 g/m*3
06-06-2011  16:54:02
15.58 g/m*3
05-06-2011  14:29:01
12.09 g/m*3
Windchill
(Aussen-T/F)
13.5 C
06-06-2011  05:42:07
29.1 C
06-06-2011  13:30:02
18.43 C

Die Daten stammen von einer Davis Vantage Pro 2 Wetter-Station und werden unter Linux mit der Software wview2wettercgi und aufbereitet. Alle Angaben erfolgen ohne Gewähr für ihre Vollständigkeit oder Richtigkeit.
Kontakt: Rainer Krienke krienke@uni-koblenz.de . Meine Webseiten an der Uni Koblenz oder privat.
Version: $Revision: 0.78 $